Terminal Aerodrome Forecast
Issued by NWS

Home | Current Version | Previous Version | Text Only | Print | Product List | Glossary On
Versions: 1 2 3 4 5 6 7 8 9 10 11 12 13 14 15 16 17 18 19 20 21 22 23 24 25 26
000
FTUS43 KDVN 252300 RRA
TAFCID
TAF
KCID 252346Z 2600/2624 16010KT P6SM BKN200
     FM261500 21008KT P6SM BKN150
     FM262100 29005KT 6SM BR BKN015 OVC030=

USA.gov is the U.S. government's official web portal to all federal, state and local government web resources and services.